createdAt,value
2022-07-31T00:01:23.432Z,95918.03
2022-07-31T00:06:26.982Z,95918.22
2022-07-31T00:11:33.327Z,95904.78
2022-07-31T00:16:36.628Z,95903.28
2022-07-31T00:21:40.204Z,95908.50
2022-07-31T00:26:43.845Z,95912.91
2022-07-31T00:31:50.028Z,95902.72
2022-07-31T00:36:53.455Z,95896.72
2022-07-31T00:41:56.840Z,95905.75
2022-07-31T00:47:01.967Z,95897.16
2022-07-31T00:52:06.211Z,95900.47
2022-07-31T00:57:10.263Z,95906.34
2022-07-31T01:02:14.260Z,95906.41
2022-07-31T01:07:17.938Z,95907.50
2022-07-31T01:12:22.111Z,95914.75
2022-07-31T01:17:33.870Z,95908.16
2022-07-31T01:22:47.064Z,95907.03
2022-07-31T01:28:04.696Z,95908.00
2022-07-31T01:33:16.861Z,95897.63
2022-07-31T01:38:23.635Z,95902.72
2022-07-31T01:43:33.069Z,95899.38
2022-07-31T01:48:36.969Z,95895.84
2022-07-31T01:53:41.071Z,95885.13
2022-07-31T01:58:44.808Z,95896.38
2022-07-31T02:03:51.463Z,95888.97
2022-07-31T02:08:59.899Z,95888.34
2022-07-31T02:14:03.616Z,95885.75
2022-07-31T02:19:07.353Z,95890.34
2022-07-31T02:24:10.981Z,95891.22
2022-07-31T02:29:19.463Z,95892.38
2022-07-31T02:34:23.618Z,95896.34
2022-07-31T02:39:33.172Z,95893.81
2022-07-31T02:44:36.482Z,95886.22
2022-07-31T02:49:39.692Z,95883.75
2022-07-31T02:54:44.400Z,95884.59
2022-07-31T02:59:48.094Z,95875.16
2022-07-31T03:04:51.504Z,95876.66
2022-07-31T03:09:55.137Z,95883.22
2022-07-31T03:14:59.789Z,95880.50
2022-07-31T03:20:03.076Z,95883.69
2022-07-31T03:25:06.951Z,95886.06
2022-07-31T03:30:10.711Z,95879.38
2022-07-31T03:35:14.517Z,95883.06
2022-07-31T03:40:18.257Z,95881.47
2022-07-31T03:45:22.138Z,95881.31
2022-07-31T03:50:26.622Z,95883.41
2022-07-31T03:55:30.812Z,95874.25
2022-07-31T04:00:35.335Z,95877.94
2022-07-31T04:05:39.133Z,95877.75
2022-07-31T04:10:43.370Z,95877.28
2022-07-31T04:15:47.980Z,95890.91
2022-07-31T04:20:51.501Z,95884.66
2022-07-31T04:25:55.358Z,95883.25
2022-07-31T04:30:59.550Z,95887.22
2022-07-31T04:36:03.365Z,95895.69
2022-07-31T04:41:06.761Z,95889.13
2022-07-31T04:46:17.290Z,95890.41
2022-07-31T04:51:21.555Z,95896.00
2022-07-31T04:56:43.385Z,95898.53
2022-07-31T05:01:47.271Z,95898.47
2022-07-31T05:06:52.183Z,95903.84
2022-07-31T05:11:55.851Z,95899.53
2022-07-31T05:16:59.640Z,95895.63
2022-07-31T05:22:05.346Z,95884.50
2022-07-31T05:27:09.278Z,95883.19
2022-07-31T05:32:13.457Z,95892.63
2022-07-31T05:37:16.963Z,95892.25
2022-07-31T05:42:20.300Z,95897.56
2022-07-31T05:47:24.127Z,95911.63
2022-07-31T05:52:43.839Z,95906.50
2022-07-31T05:57:47.552Z,95911.41
2022-07-31T06:02:50.869Z,95913.84
2022-07-31T06:07:54.459Z,95912.34
2022-07-31T06:12:58.191Z,95911.94
2022-07-31T06:18:02.339Z,95924.72
2022-07-31T06:23:19.966Z,95920.75
2022-07-31T06:28:47.745Z,95920.97
2022-07-31T06:33:52.914Z,95924.28
2022-07-31T06:38:57.017Z,95925.78
2022-07-31T06:44:00.251Z,95916.19
2022-07-31T06:49:08.562Z,95913.25
2022-07-31T06:54:12.923Z,95918.94
2022-07-31T06:59:39.442Z,95916.78
2022-07-31T07:04:56.173Z,95928.53
2022-07-31T07:10:03.837Z,95924.28
2022-07-31T07:15:07.177Z,95932.31
2022-07-31T07:20:13.994Z,95927.66
2022-07-31T07:25:20.406Z,95927.91
2022-07-31T07:30:23.768Z,95919.84
2022-07-31T07:35:28.622Z,95926.72
2022-07-31T07:40:34.482Z,95923.94
2022-07-31T07:45:41.640Z,95933.19
2022-07-31T07:50:46.197Z,95924.25
2022-07-31T07:55:50.191Z,95910.84
2022-07-31T08:00:53.936Z,95907.69
2022-07-31T08:05:57.831Z,95903.88
2022-07-31T08:11:02.232Z,95903.75
2022-07-31T08:16:05.596Z,95903.41
2022-07-31T08:21:08.889Z,95901.53
2022-07-31T08:26:13.130Z,95897.09
2022-07-31T08:31:17.457Z,95901.63
2022-07-31T08:36:22.049Z,95897.72
2022-07-31T08:41:25.387Z,95901.41
2022-07-31T08:46:29.093Z,95890.50
2022-07-31T08:51:32.713Z,95889.19
2022-07-31T08:56:54.511Z,95887.09
2022-07-31T09:01:59.474Z,95887.41
2022-07-31T09:07:03.650Z,95886.56
2022-07-31T09:12:07.715Z,95889.75
2022-07-31T09:17:15.780Z,95874.72
2022-07-31T09:22:19.347Z,95874.09
2022-07-31T09:27:22.925Z,95873.84
2022-07-31T09:32:27.461Z,95861.03
2022-07-31T09:37:31.338Z,95868.66
2022-07-31T09:42:35.048Z,95865.66
2022-07-31T09:47:42.862Z,95867.94
2022-07-31T09:52:46.773Z,95862.53
2022-07-31T09:57:50.497Z,95864.03
2022-07-31T10:02:54.328Z,95856.78
2022-07-31T10:07:57.952Z,95858.50
2022-07-31T10:13:02.578Z,95853.59
2022-07-31T10:18:06.379Z,95841.59
2022-07-31T10:23:09.995Z,95843.47
2022-07-31T10:28:13.690Z,95839.13
2022-07-31T10:33:42.392Z,95842.91
2022-07-31T10:38:41.777Z,95833.38
2022-07-31T10:43:45.304Z,95841.44
2022-07-31T10:48:49.061Z,95835.53
2022-07-31T10:53:55.977Z,95836.13
2022-07-31T10:59:00.297Z,95837.91
2022-07-31T11:04:05.255Z,95832.25
2022-07-31T11:09:09.088Z,95818.94
2022-07-31T11:14:12.760Z,95811.69
2022-07-31T11:19:16.485Z,95807.69
2022-07-31T11:24:20.235Z,95805.50
2022-07-31T11:30:01.430Z,95801.88
2022-07-31T11:34:47.704Z,95793.97
2022-07-31T11:39:51.270Z,95809.97
2022-07-31T11:44:55.243Z,95804.63
2022-07-31T11:49:59.845Z,95796.28
2022-07-31T11:55:08.563Z,95798.31
2022-07-31T12:00:29.111Z,95802.19
2022-07-31T12:05:37.973Z,95802.03
2022-07-31T12:10:43.027Z,95803.06
2022-07-31T12:15:46.746Z,95791.91
2022-07-31T12:20:50.555Z,95785.94
2022-07-31T12:25:54.145Z,95782.03
2022-07-31T12:30:57.840Z,95769.00
2022-07-31T12:36:01.653Z,95766.25
2022-07-31T12:41:05.778Z,95770.50
2022-07-31T12:46:09.056Z,95763.38
2022-07-31T12:51:12.500Z,95759.09
2022-07-31T12:56:15.827Z,95756.28
2022-07-31T13:01:19.566Z,95750.75
2022-07-31T13:06:23.618Z,95742.09
2022-07-31T13:11:29.445Z,95743.69
2022-07-31T13:16:33.590Z,95732.63
2022-07-31T13:21:48.378Z,95725.84
2022-07-31T13:26:53.273Z,95722.72
2022-07-31T13:31:57.576Z,95726.59
2022-07-31T13:37:01.080Z,95719.97
2022-07-31T13:42:05.734Z,95720.63
2022-07-31T13:47:10.217Z,95717.47
2022-07-31T13:52:13.811Z,95723.56
2022-07-31T13:57:18.764Z,95715.03
2022-07-31T14:02:23.317Z,95711.34
2022-07-31T14:07:45.297Z,95712.31
2022-07-31T14:12:51.144Z,95710.88
2022-07-31T14:17:54.880Z,95717.91
2022-07-31T14:22:58.912Z,95694.28
2022-07-31T14:28:02.961Z,95709.88
2022-07-31T14:33:06.318Z,95697.53
2022-07-31T14:38:09.652Z,95696.69
2022-07-31T14:43:13.273Z,95687.09
2022-07-31T14:48:16.916Z,95686.34
2022-07-31T14:53:20.760Z,95688.34
2022-07-31T14:58:24.607Z,95681.97
2022-07-31T15:03:28.807Z,95681.88
2022-07-31T15:08:32.482Z,95681.78
2022-07-31T15:13:38.970Z,95675.16
2022-07-31T15:18:42.834Z,95681.81
2022-07-31T15:23:46.925Z,95683.00
2022-07-31T15:28:50.735Z,95671.56
2022-07-31T15:33:54.748Z,95663.72
2022-07-31T15:38:58.472Z,95660.56
2022-07-31T15:44:01.808Z,95653.41
2022-07-31T15:49:05.670Z,95649.50
2022-07-31T15:54:09.798Z,95646.38
2022-07-31T15:59:13.312Z,95648.22
2022-07-31T16:04:17.068Z,95647.66
2022-07-31T16:09:24.287Z,95649.56
2022-07-31T16:14:28.111Z,95652.44
2022-07-31T16:19:31.722Z,95639.03
2022-07-31T16:24:37.900Z,95641.00
2022-07-31T16:29:59.430Z,95629.69
2022-07-31T16:35:06.401Z,95622.50
2022-07-31T16:40:09.685Z,95615.34
2022-07-31T16:45:35.727Z,95616.22
2022-07-31T16:50:41.043Z,95605.97
2022-07-31T16:55:59.940Z,95609.84
2022-07-31T17:01:05.812Z,95609.56
2022-07-31T17:06:36.481Z,95617.88
2022-07-31T17:11:41.442Z,95612.25
2022-07-31T17:16:48.641Z,95604.38
2022-07-31T17:21:52.458Z,95608.16
2022-07-31T17:26:55.749Z,95615.81
2022-07-31T17:31:59.025Z,95613.56
2022-07-31T17:37:03.501Z,95611.47
2022-07-31T17:42:09.303Z,95620.00
2022-07-31T17:47:14.434Z,95622.22
2022-07-31T17:52:18.100Z,95623.84
2022-07-31T17:57:23.627Z,95629.34
2022-07-31T18:02:27.507Z,95628.69
2022-07-31T18:07:30.802Z,95628.69
2022-07-31T18:12:56.809Z,95633.50
2022-07-31T18:17:58.162Z,95641.31
2022-07-31T18:23:02.562Z,95638.88
2022-07-31T18:28:07.395Z,95642.16
2022-07-31T18:33:13.263Z,95638.94
2022-07-31T18:38:17.129Z,95642.75
2022-07-31T18:43:21.643Z,95627.88
2022-07-31T18:48:26.192Z,95627.81
2022-07-31T18:53:29.942Z,95635.00
2022-07-31T18:58:33.631Z,95637.19
2022-07-31T19:03:37.317Z,95635.34
2022-07-31T19:08:41.193Z,95646.75
2022-07-31T19:13:44.723Z,95647.53
2022-07-31T19:18:50.262Z,95647.69
2022-07-31T19:23:54.254Z,95655.56
2022-07-31T19:28:57.727Z,95649.81
2022-07-31T19:34:01.454Z,95647.91
2022-07-31T19:39:05.160Z,95653.41
2022-07-31T19:44:09.515Z,95654.91
2022-07-31T19:49:13.232Z,95660.25
2022-07-31T19:54:17.816Z,95655.41
2022-07-31T19:59:25.243Z,95656.50
2022-07-31T20:04:28.725Z,95648.72
2022-07-31T20:09:32.745Z,95641.13
2022-07-31T20:14:36.117Z,95643.97
2022-07-31T20:20:11.829Z,95646.50
2022-07-31T20:25:19.940Z,95636.69
2022-07-31T20:30:25.551Z,95644.28
2022-07-31T20:35:47.583Z,95642.34
2022-07-31T20:40:54.484Z,95639.34
2022-07-31T20:45:58.821Z,95645.09
2022-07-31T20:51:02.441Z,95636.69
2022-07-31T20:56:06.018Z,95631.22
2022-07-31T21:01:09.609Z,95629.72
2022-07-31T21:06:13.218Z,95628.03
2022-07-31T21:11:16.878Z,95627.59
2022-07-31T21:16:20.499Z,95616.88
2022-07-31T21:21:24.086Z,95617.50
2022-07-31T21:26:28.663Z,95611.88
2022-07-31T21:31:32.148Z,95610.63
2022-07-31T21:36:35.730Z,95618.88
2022-07-31T21:41:38.994Z,95617.91
2022-07-31T21:46:48.184Z,95609.94
2022-07-31T21:51:56.546Z,95609.13
2022-07-31T21:57:00.107Z,95609.03
2022-07-31T22:02:03.492Z,95610.88
2022-07-31T22:07:24.698Z,95611.13
2022-07-31T22:12:28.089Z,95610.84
2022-07-31T22:17:31.683Z,95608.63
2022-07-31T22:22:34.977Z,95608.16
2022-07-31T22:27:55.475Z,95612.22
2022-07-31T22:32:59.964Z,95609.41
2022-07-31T22:38:03.190Z,95600.28
2022-07-31T22:44:10.529Z,95615.13
2022-07-31T22:48:29.838Z,95607.78
2022-07-31T22:53:34.977Z,95608.94
2022-07-31T22:58:38.292Z,95600.94
2022-07-31T23:03:41.518Z,95605.97
2022-07-31T23:08:45.137Z,95605.75
2022-07-31T23:14:08.319Z,95604.47
2022-07-31T23:19:11.838Z,95608.22
2022-07-31T23:24:15.134Z,95606.19
2022-07-31T23:29:18.526Z,95610.88
2022-07-31T23:34:21.849Z,95601.16
2022-07-31T23:39:25.426Z,95599.19
2022-07-31T23:44:28.758Z,95596.56
2022-07-31T23:49:32.545Z,95603.16
2022-07-31T23:54:35.824Z,95600.94
2022-07-31T23:59:39.047Z,95602.78
